RESULTATS »

INSCRITS PRESENTATS ACABEN RETIRATS DESQUALIFICATS DIST. TRAM 1 DIST. TRAM 2 DIST. TRAM 3 TEMP. EXT TEMP. AIGUA
81 80 79 1 0 6 20 3 12 0

CLASSIFICACIÓ

MASCULÍ FEMENÍ CATEGORIES CLUBS (MASCULINA) CLUBS (FEMENINA) INDIVIDUALS GRUPS D'EDAT

LLOCDORSALNOMCLUBCAT.T.META| P.Tram 1 || P.Tram 2 |Km/hTEMPS| P.Tram 3 |PARC_1PARC_2
1 1220CARLOS PORTILLA PARRILLAC.N. REUS PLOMSABM01:24:33400:20:16100:54:2022.0901:14:36200:09:570:00:000:00:00
2 826OMAR MARTINEZ OSUNACLUB TRIATLO LLUÇANESABM01:24:51200:19:59300:54:4621.9101:14:45500:10:060:00:000:00:00
3 1389EVER ALEJANDRO GOMEZ DIAZCLUB MEDINA TRIATLOABM01:25:51300:20:15200:54:2522.0501:14:401700:11:110:00:000:00:00
4 3895XAVIER MADRONA VILACLUB TRIATLO LLUÇANESABM01:25:57800:20:46400:55:1121.7501:15:57300:10:000:00:000:00:00
5 3471CARLOS DELGADO GARCIACLUB MEDINA TRIATLOABM01:26:02700:20:38500:55:1821.7001:15:56600:10:060:00:000:00:00
6 1265ALBERT CAMPS SERRACLUB MEDINA TRIATLOV1M01:27:21500:20:17600:56:3321.2201:16:50700:10:310:00:000:00:00
7 2033JAN MARGARIT SOLECLUB TRIATLO LLUÇANESJNM01:27:39100:19:451100:58:4020.4501:18:25100:09:140:00:000:00:00
8 3894MARC CASANOVA SOLAC.N. REUS PLOMSABM01:28:47900:20:51900:57:5020.7501:18:41400:10:060:00:000:00:00
9 8002MARIO SINUÉS MICÓLLICENCIA DE DIASUB23M01:29:37600:20:37800:57:3420.8501:18:112400:11:260:00:000:00:00
10 4501VICTOR PEREZ VAZQUEZC.N. REUS PLOMSABM01:29:461700:21:46700:56:4321.1601:18:292100:11:170:00:000:00:00
11 3614ROBERTO FIDALGO LOPEZCLUB MEDINA TRIATLOABM01:31:041000:21:041200:59:0520.3101:20:091200:10:550:00:000:00:00
12 8003JORDI ESCLUSA PRATLLICENCIA DE DIAABM01:31:321900:21:591000:58:1920.5801:20:181800:11:140:00:000:00:00
13 2053EDUARD RODELLAS PLAC.N. VIC-ETBABM01:32:271500:21:451300:59:2120.2201:21:062200:11:210:00:000:00:00
14 5907RAMSÉS MORENO RUIPÉREZINDEPENDENTABM01:33:391400:21:421701:00:5619.6901:22:381400:11:010:00:000:00:00
15 2815JOAN CARLES CASTELLA MARCTEAM CALELLA TRIATHLONV1M01:33:433200:23:021400:59:3320.1501:22:351500:11:080:00:000:00:00
16 244JOSEP A. PEREZ MARINCLUB TRIATLO GRANOLLERSV1M01:34:032100:22:141501:00:3519.8101:22:491900:11:140:00:000:00:00
17 5872ALBERT TORRES CARLES C.N. REUS PLOMSV1M01:34:071800:21:581601:00:4719.7401:22:452300:11:220:00:000:00:00
18 1484ORIOL AGUILERA AGUSTÍCLUB TRIATLO GRANOLLERSABM01:34:111200:21:292001:02:0119.3501:23:30900:10:410:00:000:00:00
19 702JOAN SERRA PONSTEAM CALELLA TRIATHLONABM01:35:391100:21:272201:03:1318.9801:24:401300:10:590:00:000:00:00
20 2153LLUIS MARTINEZ RAVETLLATA.C. PARETS RAVET BIKEABM01:35:552700:22:412101:02:0419.3301:24:451600:11:100:00:000:00:00
21 3919SERGI ESCRIU MATEUCLUB TRI-BUV1M01:36:35000:00:00000:00:000.0001:25:481000:10:470:00:000:00:00
22 3896JORDI FONT CORRIUSCLUB TRIATLO LLUÇANESABM01:37:062800:22:451901:01:5619.3801:24:413800:12:250:00:000:00:00
23 2808PEDRO J. OLIVEROS OLIVEROCLUB TRIATLO GRANOLLERSV1M01:37:252300:22:182401:03:5118.7901:26:092000:11:160:00:000:00:00
24 867SANTI BARRERA MARTINEZPRAT TRIATLO 1994V2M01:38:072200:22:142701:05:0018.4601:27:141100:10:530:00:000:00:00
25 2850GABRIEL GUTIERREZ MUÑOZTEAM CALELLA TRIATHLONV1M01:38:572000:22:072901:05:1718.3801:27:242800:11:330:00:000:00:00
26 2136KIRIAN MARTORELL CARBONELA. C. PARETS RAVET BIKEABM01:39:053500:23:392301:03:4318.8301:27:223200:11:430:00:000:00:00
27 2271JAIRO GARCIA ALONSOA. C. PARETS RAVET BIKESUB23M01:39:064200:24:201801:01:5319.3901:26:134800:12:530:00:000:00:00
28 3458JESUS TORRES PEREZA.C. PARETS RAVET BIKEABM01:39:142500:22:372501:04:5418.4901:27:313100:11:430:00:000:00:00
29 3227PAU LORENZO SENDIÑATEAM CALELLA TRIATHLONABM01:39:361600:21:453301:07:1917.8301:29:04800:10:320:00:000:00:00
30 3322JOAN QUINTANA CASANOVASCLUB TRI-BUABM01:40:193000:22:492601:04:5618.4801:27:454200:12:340:00:000:00:00
31 3293GENÍS MATEU SALARICHCLUB TRIATLO GRANOLLERSABM01:40:422600:22:383001:06:3518.0201:29:132500:11:290:00:000:00:00
32 5899JOSEP LLEONART SUBIRANAPRAT TRIATLO 1994V1M01:41:063700:23:462801:05:0918.4201:28:553400:12:110:00:000:00:00
33 5858POL ESPINOSA VALEROCLUB NATACIO BANYOLESJNM01:41:321300:21:383601:08:2317.5501:30:012600:11:310:00:000:00:00
34 2237JOSE HOYOS ARCET-BIKES CLUB TRIATLOABM01:41:383300:23:063101:06:5217.9501:29:583000:11:400:00:000:00:00
35 7004LLUIS TORROELLA PARERALLICENCIA DE DIAABM01:41:54000:00:00000:00:000.0001:29:483300:12:060:00:000:00:00
36 2131ORIOL FORNS NADALA.C. PARETS RAVET BIKEABM01:42:122400:22:183501:08:1917.5701:30:372900:11:350:00:000:00:00
37 3353SERGI SANCHEZ GRAUC.N. REUS PLOMSV2M01:43:403600:23:433201:07:0617.8801:30:494700:12:510:00:000:00:00
38 3240JOAN VILA VILACLUB TRIATLO LLUÇANESSUB23M01:44:43000:00:00000:00:000.0001:31:165600:13:270:00:000:00:00
39 996SANTI RIBOT TERRICABRASCLUB TRIATLO GRANOLLERSV2M01:44:553800:24:033701:08:3917.4801:32:423600:12:130:00:000:00:00
40 3288JOSÉ ANTONIO MALLEN ROMERCERRR IGUALADAV1M01:45:334900:24:533401:08:1017.6001:33:033900:12:300:00:000:00:00
41 3853JOSEP RUBIO SOLAA.C. PARETS RAVET BIKESUB23M01:45:493400:23:344501:10:4316.9701:34:172700:11:320:00:000:00:00
42 3317JOSEP MARTIN PINOCLUB TRIATLO LLUÇANESSUB23M01:46:102900:22:474601:10:5116.9401:33:384000:12:320:00:000:00:00
43 2513MARC FARRÉ CANALETASBR OPEN TEAMABM01:46:274100:24:194001:09:5617.1601:34:153500:12:120:00:000:00:00
44 619OSCAR PUNTI FIESTASCLUB NATACIO RUBIV1M01:47:064800:24:523901:09:1417.3301:34:065200:13:000:00:000:00:00
45 1791SERGI SERNA ESPINART-BIKES CLUB TRIATLOJNM01:47:314000:24:174301:10:1617.0801:34:335000:12:580:00:000:00:00
46 7005ADRIÀ COLS CAMPRUBILLICENCIA DE DIAJNM01:47:493100:22:514401:10:1717.0701:33:086700:14:410:00:000:00:00
47 693DAVID LOPEZ RUIZCLUB TRIATLO LLUÇANESABM01:48:294400:24:304101:09:5817.1501:34:286000:14:010:00:000:00:00
48 2273FRANCESC PADRO BAROT-BIKES CLUB TRIATLOV1M01:48:435300:25:214201:10:0517.1201:35:265400:13:170:00:000:00:00
49 4765JOAN IGLESIES BARCIAT-BIKES CLUB TRIATLOV2M01:50:204700:24:504701:12:4616.4901:37:364400:12:440:00:000:00:00
50 5898FRANCESC LOPEZ MARISCALCLUB MEDINA TRIATLOABM01:53:123900:24:065101:16:2615.7001:40:324300:12:400:00:000:00:00
51 3302JONATAN CARDENAS PEREZA.C. PARETS RAVET BIKEABM01:54:205700:26:025001:15:1815.9401:41:205100:13:000:00:000:00:00
52 3203DANIEL SANCHEZ GONZALEZC.N. REUS PLOMSABM01:55:175200:25:205201:17:2415.5001:42:444100:12:330:00:000:00:00
53 4315JORDI LLAVEROLA VIDALCERRR IGUALADAABM01:55:366400:28:004901:13:4416.2701:41:445900:13:520:00:000:00:00
54 1159MIGUEL ANGEL MARTINEZ ALFPRAT TRIATLO 1994V3M01:58:204500:24:326001:20:5814.8201:45:304600:12:500:00:000:00:00
55 2664DAVID OTAL DE SANROMACLUB TRIATLO GRANOLLERSV1M01:58:314600:24:475701:20:2714.9201:45:145500:13:170:00:000:00:00
56 3314MIQUEL SOLÉ AIXÁSC. TRIATLO MONTORNESABM02:01:115800:26:055901:20:5314.8401:46:586200:14:130:00:000:00:00
57 5891JAUME MESQUIDA FEBRERCLUB TRIATLO SABADELLV1M02:01:125400:25:236201:23:2714.3801:48:503700:12:220:00:000:00:00
58 7003FRANCESC XAVIER SUBIRANA FEECV3M02:01:136900:29:255301:17:2715.4901:46:526400:14:210:00:000:00:00
59 5876FIDEL COMPTE RABELLCERRR IGUALADAJNM02:01:405000:24:556301:23:4014.3401:48:355300:13:050:00:000:00:00
60 3308DIEGO MEDINA RUEDAVEC CYCLING & RUNV1M02:01:476200:27:345601:20:2414.9301:47:585800:13:490:00:000:00:00
61 5824MARC RIERA BAILENC.N. VIC-ETBABM02:03:346500:28:025801:20:5214.8401:48:546600:14:400:00:000:00:00
62 7001JOSE LUIS ABUELO ABUELOLLICENCIA DE DIASUB23M02:04:134300:24:216901:25:3814.0101:49:596300:14:140:00:000:00:00
63 877MANEL VIVANCOS GONZALEZCERRR IGUALADAV2M02:04:455600:26:016801:25:1614.0701:51:175700:13:280:00:000:00:00
64 2142ORIOL GOMEZ FELIUC. TRIATLO MONTORNESSUB23M02:09:396100:26:306401:24:1114.2501:50:417800:18:580:00:000:00:00
65 5513PAU ALONSO ZAGUIRREVEC CYCLING & RUNABM02:09:516700:29:096601:24:3514.1901:53:447000:16:070:00:000:00:00
66 7006SANTI MADUELL CREUSFEECV1M02:12:546800:29:097001:27:0213.7901:56:117200:16:430:00:000:00:00
67 7002DUNCAN CARSE SANCHEZLLICENCIA DE DIASUB23M02:20:455900:26:207201:36:0812.4802:02:287500:18:170:00:000:00:00






FEDERACIÓ CATALANA DE TRIATLÓ
SEU CENTRAL I CORRESPONDÈNCIA: Rambla Guipúscoa 23-25 2on-D · 08018 Barcelona · Tel / Fax : 93 307 93 35
ATENCIÓ AL PÚBLIC: Passeig Joan de Borbó, 93 (Club Natació Barcelona) · 08039 Barcelona · Tel / Fax : 93 307 93 32